White Plains, Maryland
Current Conditions -  °F | °C
As of 12:58 PM on Sunday 21 Dec 2014 (Local Time) from KDAA Reporting Station
Clear Clear  
Wind Chill: 42°   Ceiling: Unl
Heat Index: 42°   Visibility: 10mi
Dew Point: 24°   Wind: 1mph
Humidity: 48%   Direction: NA
Pressure: 30.33"   Gusts: NA
Location:  38.59°N, 76.98°W
Report Text: KDAA 211758Z AUTO VRB01KT 10SM CLR 06/M05 A3033 RMK AO2 SLP275 T00561047 10056 20001 58016
Loading
Personal Weather Stations






























Interactive Weather Map New forecast layout! Learn more

10-Day Weather Forecast

Advertisements
Track Severe Weather on mobile